The Farmers Guide 72-hour weather forecast

Enter Postcode:

Cloudy with outbreaks of Rain

(06:00)

12.6°C

IP2 0SS

Wind Soil
Date Time Weather Temp Rain Humid Cloud Press (mph) Temp Moist
23/11 06:00 12.6°C 5.4mm 97% 98% 1014mb 4sw (215 degrees) 11.5°C 0.3%
09:00 11.4°C 4.0mm 94% 100% 1015mb 9nnw (334 degrees) 11.5°C 0.3%
12:00 9.3°C 7.5mm 89% 100% 1015mb 17nnw (348 degrees) 11.5°C 0.3%
15:00 8.2°C 6.8mm 91% 100% 1015mb 15nnw (341 degrees) 11.5°C 0.3%
18:00 6.9°C 12.4mm 94% 99% 1017mb 12nnw (332 degrees) 11.5°C 0.3%
21:00 5.9°C 2.1mm 97% 100% 1019mb 9nw (315 degrees) 11.5°C 0.3%
24/11 00:00 4.8°C 2.1mm 97% 89% 1022mb 9nw (310 degrees) 11.5°C 0.3%
03:00 4.3°C 0.0mm 96% 94% 1022mb 8nw (309 degrees) 11.5°C 0.3%
06:00 3.5°C 0.0mm 97% 74% 1024mb 6nww (303 degrees) 11.5°C 0.3%
09:00 4.3°C 0.0mm 93% 28% 1025mb 5nw (308 degrees) 11.5°C 0.3%
12:00 6.8°C 0.0mm 84% 32% 1026mb 5nw (325 degrees) 11.5°C 0.3%
15:00 6.4°C 0.0mm 89% 29% 1025mb 4n (349 degrees) 11.4°C 0.3%
18:00 5.1°C 0.0mm 92% 34% 1026mb 4nne (20 degrees) 11.4°C 0.3%
21:00 5.2°C 0.0mm 91% 27% 1027mb 5ne (49 degrees) 11.4°C 0.3%
25/11 00:00 5.8°C 0.0mm 90% 15% 1026mb 6nee (61 degrees) 11.4°C 0.3%
03:00 6.4°C 0.0mm 90% 6% 1025mb 7nee (64 degrees) 11.4°C 0.3%
06:00 7.7°C 0.0mm 88% 37% 1024mb 8nee (73 degrees) 11.3°C 0.3%
09:00 8.7°C 0.2mm 85% 98% 1023mb 9e (82 degrees) 11.3°C 0.3%
12:00 9.5°C 0.2mm 80% 98% 1022mb 9e (86 degrees) 11.3°C 0.3%
15:00 9.2°C 0.0mm 79% 100% 1020mb 11e (81 degrees) 11.3°C 0.3%
18:00 8.8°C 1.3mm 85% 99% 1019mb 10e (80 degrees) 11.3°C 0.3%
21:00 8.7°C 2.2mm 89% 99% 1018mb 10nee (77 degrees) 11.2°C 0.3%
26/11 00:00 9.0°C 3.0mm 94% 100% 1016mb 9e (89 degrees) 11.2°C 0.3%
03:00 9.4°C 0.7mm 96% 99% 1014mb 6e (101 degrees) 11.2°C 0.3%
The Farmers Guide weather forecast is a free service for users of this website.
 
We now carry forecasts based on postcodes. Just enter your postcode and the weather page will display the forecast for the following 72 hours, broken down into three-hour intervals.
 
The forecast data provided for each three-hour period includes: a general graphic showing the likely weather conditions; average temperatures for the period; cloud cover; barometric pressure; wind speed and direction; humidity; and rainfall.
 
An indication of the likely soil temperature and soil moisture will also be displayed for most postcodes, although this data is not available for every area.
 
We hope you will find this service useful and would welcome any feedback from you.
 
 

Search

Read our full December issue here FREE!

Advertisments